Fort Loudon, Pennsylvania
Current Conditions -  °F | °C
As of 6:53 PM on Saturday 22 Nov 2014 (Local Time) from KHGR Reporting Station
Clear Clear  
Wind Chill: 43°   Ceiling: Unl
Heat Index: 43°   Visibility: 10mi
Dew Point: 17°   Wind: 0mph
Humidity: 35%   Direction: NA
Pressure: 30.23"   Gusts: NA
Location:  39.91°N, 77.9°W
Report Text: KHGR 222353Z 00000KT 10SM CLR 06/M08 A3023 RMK AO2 SLP254 T00611083 10072 20039 58009
Loading
Personal Weather Stations






























Interactive Weather Map New forecast layout! Learn more

10-Day Weather Forecast

Advertisements
Track Severe Weather on mobile